createdAt,value
2018-10-21T00:00:50.082Z,1024.89
2018-10-21T00:02:43.533Z,1024.89
2018-10-21T00:03:43.555Z,1024.89
2018-10-21T00:05:36.992Z,1024.90
2018-10-21T00:06:37.024Z,1024.89
2018-10-21T00:08:30.477Z,1024.86
2018-10-21T00:09:30.497Z,1024.84
2018-10-21T00:11:23.932Z,1024.85
2018-10-21T00:12:23.961Z,1024.86
2018-10-21T00:14:17.410Z,1024.83
2018-10-21T00:15:17.568Z,1024.84
2018-10-21T00:17:10.889Z,1024.92
2018-10-21T00:18:10.911Z,1024.90
2018-10-21T00:20:04.351Z,1024.92
2018-10-21T00:21:04.426Z,1024.89
2018-10-21T00:22:57.840Z,1024.85
2018-10-21T00:23:57.863Z,1024.82
2018-10-21T00:25:51.304Z,1024.80
2018-10-21T00:26:51.333Z,1024.76
2018-10-21T00:28:44.784Z,1024.77
2018-10-21T00:29:44.808Z,1024.73
2018-10-21T00:31:38.258Z,1024.80
2018-10-21T00:32:38.292Z,1024.77
2018-10-21T00:34:31.736Z,1024.73
2018-10-21T00:35:31.761Z,1024.71
2018-10-21T00:37:25.200Z,1024.75
2018-10-21T00:38:25.229Z,1024.75
2018-10-21T00:40:18.691Z,1024.72
2018-10-21T00:41:18.704Z,1024.74
2018-10-21T00:43:12.149Z,1024.74
2018-10-21T00:44:12.172Z,1024.71
2018-10-21T00:46:05.617Z,1024.77
2018-10-21T00:47:05.643Z,1024.78
2018-10-21T00:48:59.093Z,1024.80
2018-10-21T00:49:59.108Z,1024.78
2018-10-21T00:51:52.558Z,1024.76
2018-10-21T00:52:52.589Z,1024.76
2018-10-21T00:54:46.041Z,1024.82
2018-10-21T00:55:46.060Z,1024.84
2018-10-21T00:57:39.504Z,1024.76
2018-10-21T00:58:39.531Z,1024.76
2018-10-21T01:00:32.984Z,1024.78
2018-10-21T01:01:33.003Z,1024.80
2018-10-21T01:03:26.450Z,1024.74
2018-10-21T01:04:26.471Z,1024.80
2018-10-21T01:06:19.909Z,1024.74
2018-10-21T01:07:19.940Z,1024.73
2018-10-21T01:09:13.527Z,1024.69
2018-10-21T01:10:13.410Z,1024.71
2018-10-21T01:12:06.852Z,1024.68
2018-10-21T01:13:06.878Z,1024.67
2018-10-21T01:15:00.371Z,1024.70
2018-10-21T01:16:00.350Z,1024.67
2018-10-21T01:17:53.786Z,1024.68
2018-10-21T01:18:53.816Z,1024.68
2018-10-21T01:20:47.269Z,1024.72
2018-10-21T01:21:47.289Z,1024.72
2018-10-21T01:23:40.746Z,1024.77
2018-10-21T01:24:40.758Z,1024.77
2018-10-21T01:26:34.198Z,1024.80
2018-10-21T01:27:34.227Z,1024.82
2018-10-21T01:29:27.688Z,1024.78
2018-10-21T01:30:27.696Z,1024.76
2018-10-21T01:32:21.136Z,1024.71
2018-10-21T01:33:21.165Z,1024.70
2018-10-21T01:35:14.613Z,1024.70
2018-10-21T01:36:14.731Z,1024.69
2018-10-21T01:38:08.181Z,1024.73
2018-10-21T01:39:08.178Z,1024.67
2018-10-21T01:41:01.564Z,1024.72
2018-10-21T01:42:01.583Z,1024.72
2018-10-21T01:43:55.031Z,1024.72
2018-10-21T01:44:55.070Z,1024.73
2018-10-21T01:46:48.504Z,1024.75
2018-10-21T01:47:48.531Z,1024.73
2018-10-21T01:49:41.977Z,1024.64
2018-10-21T01:50:41.997Z,1024.67
2018-10-21T01:52:35.439Z,1024.66
2018-10-21T01:53:35.468Z,1024.65
2018-10-21T01:55:28.928Z,1024.63
2018-10-21T01:56:28.948Z,1024.63
2018-10-21T01:58:22.398Z,1024.56
2018-10-21T01:59:22.432Z,1024.62
2018-10-21T02:01:15.876Z,1024.57
2018-10-21T02:02:15.898Z,1024.58
2018-10-21T02:04:09.341Z,1024.50
2018-10-21T02:05:09.371Z,1024.48
2018-10-21T02:07:02.817Z,1024.46
2018-10-21T02:08:02.837Z,1024.46
2018-10-21T02:09:56.279Z,1024.45
2018-10-21T02:10:56.309Z,1024.44
2018-10-21T02:12:49.757Z,1024.43
2018-10-21T02:13:49.782Z,1024.41
2018-10-21T02:15:43.236Z,1024.43
2018-10-21T02:16:43.257Z,1024.41
2018-10-21T02:18:36.697Z,1024.41
2018-10-21T02:19:36.730Z,1024.41
2018-10-21T02:21:30.360Z,1024.45
2018-10-21T02:22:30.198Z,1024.43
2018-10-21T02:24:23.649Z,1024.35
2018-10-21T02:25:23.678Z,1024.35
2018-10-21T02:27:17.203Z,1024.34
2018-10-21T02:28:17.150Z,1024.37
2018-10-21T02:30:10.606Z,1024.35
2018-10-21T02:31:10.631Z,1024.37
2018-10-21T02:33:04.225Z,1024.33
2018-10-21T02:34:04.107Z,1024.32
2018-10-21T02:35:57.568Z,1024.29
2018-10-21T02:36:57.587Z,1024.26
2018-10-21T02:38:51.043Z,1024.24
2018-10-21T02:39:51.057Z,1024.23
2018-10-21T02:41:44.519Z,1024.19
2018-10-21T02:42:44.540Z,1024.18
2018-10-21T02:44:37.977Z,1024.20
2018-10-21T02:45:38.009Z,1024.18
2018-10-21T02:47:31.466Z,1024.11
2018-10-21T02:48:31.485Z,1024.14
2018-10-21T02:50:24.940Z,1024.10
2018-10-21T02:51:24.967Z,1024.11
2018-10-21T02:53:18.419Z,1024.14
2018-10-21T02:54:18.437Z,1024.12
2018-10-21T02:56:11.881Z,1024.12
2018-10-21T02:57:11.990Z,1024.13
2018-10-21T02:59:05.358Z,1024.11
2018-10-21T03:00:05.382Z,1024.09
2018-10-21T03:01:58.827Z,1024.08
2018-10-21T03:02:58.895Z,1024.06
2018-10-21T03:04:52.301Z,1024.02
2018-10-21T03:05:52.328Z,1024.02
2018-10-21T03:07:45.783Z,1024.00
2018-10-21T03:08:45.796Z,1024.01
2018-10-21T03:10:39.244Z,1023.93
2018-10-21T03:11:39.280Z,1023.93
2018-10-21T03:13:32.729Z,1023.89
2018-10-21T03:14:32.751Z,1023.88
2018-10-21T03:16:26.191Z,1023.86
2018-10-21T03:17:26.228Z,1023.85
2018-10-21T03:19:19.668Z,1023.83
2018-10-21T03:20:19.691Z,1023.86
2018-10-21T03:22:13.226Z,1023.88
2018-10-21T03:23:13.252Z,1023.90
2018-10-21T03:25:06.689Z,1023.90
2018-10-21T03:26:06.721Z,1023.90
2018-10-21T03:28:00.172Z,1023.98
2018-10-21T03:29:00.200Z,1023.96
2018-10-21T03:30:53.633Z,1024.03
2018-10-21T03:31:53.666Z,1024.06
2018-10-21T03:33:47.186Z,1024.07
2018-10-21T03:34:47.133Z,1024.08
2018-10-21T03:36:40.576Z,1024.08
2018-10-21T03:37:40.606Z,1024.09
2018-10-21T03:39:34.055Z,1024.08
2018-10-21T03:40:34.075Z,1024.10
2018-10-21T03:42:27.536Z,1024.07
2018-10-21T03:43:27.555Z,1024.11
2018-10-21T03:45:21.004Z,1024.19
2018-10-21T03:46:21.038Z,1024.20
2018-10-21T03:48:14.495Z,1024.19
2018-10-21T03:49:14.519Z,1024.19
2018-10-21T03:51:07.952Z,1024.20
2018-10-21T03:52:08.012Z,1024.18
2018-10-21T03:54:01.431Z,1024.18
2018-10-21T03:55:01.454Z,1024.17
2018-10-21T03:56:54.920Z,1024.18
2018-10-21T03:57:54.955Z,1024.21
2018-10-21T03:59:48.369Z,1024.26
2018-10-21T04:00:48.399Z,1024.23
2018-10-21T04:02:41.855Z,1024.22
2018-10-21T04:03:41.876Z,1024.23
2018-10-21T04:05:35.325Z,1024.28
2018-10-21T04:06:35.366Z,1024.28
2018-10-21T04:08:28.819Z,1024.27
2018-10-21T04:09:28.838Z,1024.27
2018-10-21T04:11:21.781Z,1024.24
2018-10-21T04:12:21.810Z,1024.25
2018-10-21T04:14:15.256Z,1024.26
2018-10-21T04:15:15.276Z,1024.27
2018-10-21T04:17:08.717Z,1024.27
2018-10-21T04:18:08.747Z,1024.24
2018-10-21T04:20:02.205Z,1024.27
2018-10-21T04:21:02.226Z,1024.24
2018-10-21T04:22:55.674Z,1024.27
2018-10-21T04:23:55.693Z,1024.31
2018-10-21T04:25:49.141Z,1024.37
2018-10-21T04:26:49.170Z,1024.42
2018-10-21T04:28:42.624Z,1024.42
2018-10-21T04:29:42.639Z,1024.42
2018-10-21T04:31:36.076Z,1024.34
2018-10-21T04:32:36.103Z,1024.32
2018-10-21T04:34:29.597Z,1024.31
2018-10-21T04:35:29.681Z,1024.28
2018-10-21T04:37:23.040Z,1024.29
2018-10-21T04:38:23.055Z,1024.28
2018-10-21T04:40:16.076Z,1024.32
2018-10-21T04:41:16.032Z,1024.28
2018-10-21T04:43:09.480Z,1024.35
2018-10-21T04:44:09.513Z,1024.33
2018-10-21T04:46:02.481Z,1024.36
2018-10-21T04:47:02.638Z,1024.34
2018-10-21T04:48:55.944Z,1024.33
2018-10-21T04:49:55.962Z,1024.32
2018-10-21T04:51:48.909Z,1024.33
2018-10-21T04:52:48.938Z,1024.30
2018-10-21T04:54:42.387Z,1024.28
2018-10-21T04:55:42.408Z,1024.30
2018-10-21T04:57:35.847Z,1024.29
2018-10-21T04:58:35.873Z,1024.31
2018-10-21T05:00:28.861Z,1024.32
2018-10-21T05:01:28.858Z,1024.30
2018-10-21T05:03:22.293Z,1024.31
2018-10-21T05:04:22.321Z,1024.31
2018-10-21T05:06:15.777Z,1024.28
2018-10-21T05:07:15.805Z,1024.30
2018-10-21T05:09:09.266Z,1024.26
2018-10-21T05:10:09.280Z,1024.25
2018-10-21T05:12:02.715Z,1024.26
2018-10-21T05:13:02.742Z,1024.27
2018-10-21T05:14:56.189Z,1024.27
2018-10-21T05:15:56.268Z,1024.26
2018-10-21T05:17:49.697Z,1024.25
2018-10-21T05:18:49.692Z,1024.23
2018-10-21T05:20:43.141Z,1024.23
2018-10-21T05:21:43.161Z,1024.30
2018-10-21T05:23:36.596Z,1024.23
2018-10-21T05:24:36.632Z,1024.20
2018-10-21T05:26:30.084Z,1024.21
2018-10-21T05:27:30.102Z,1024.20
2018-10-21T05:29:23.548Z,1024.21
2018-10-21T05:30:23.574Z,1024.21
2018-10-21T05:32:17.018Z,1024.21
2018-10-21T05:33:17.039Z,1024.21
2018-10-21T05:35:10.498Z,1024.18
2018-10-21T05:36:10.519Z,1024.12
2018-10-21T05:38:04.029Z,1024.19
2018-10-21T05:39:04.002Z,1024.19
2018-10-21T05:40:56.960Z,1024.19
2018-10-21T05:41:56.979Z,1024.16
2018-10-21T05:43:50.417Z,1024.16
2018-10-21T05:44:50.446Z,1024.11
2018-10-21T05:46:43.940Z,1024.11
2018-10-21T05:47:43.927Z,1024.09
2018-10-21T05:49:37.390Z,1024.13
2018-10-21T05:50:37.411Z,1024.13
2018-10-21T05:52:30.856Z,1024.14
2018-10-21T05:53:30.881Z,1024.10
2018-10-21T05:55:24.328Z,1024.12
2018-10-21T05:56:24.350Z,1024.14
2018-10-21T05:58:17.934Z,1024.15
2018-10-21T05:59:17.825Z,1024.15
2018-10-21T06:01:11.282Z,1024.18
2018-10-21T06:02:11.308Z,1024.24
2018-10-21T06:04:04.775Z,1024.25
2018-10-21T06:05:04.769Z,1024.17
2018-10-21T06:06:58.220Z,1024.24
2018-10-21T06:07:58.241Z,1024.25
2018-10-21T06:09:51.679Z,1024.26
2018-10-21T06:10:51.713Z,1024.23
2018-10-21T06:12:44.666Z,1024.29
2018-10-21T06:13:44.691Z,1024.28
2018-10-21T06:15:38.173Z,1024.36
2018-10-21T06:16:38.170Z,1024.36
2018-10-21T06:18:31.620Z,1024.40
2018-10-21T06:19:31.653Z,1024.45
2018-10-21T06:21:24.605Z,1024.45
2018-10-21T06:22:24.624Z,1024.44
2018-10-21T06:24:18.091Z,1024.40
2018-10-21T06:25:18.122Z,1024.42
2018-10-21T06:27:11.077Z,1024.37
2018-10-21T06:28:11.099Z,1024.39
2018-10-21T06:30:04.541Z,1024.34
2018-10-21T06:31:04.581Z,1024.35
2018-10-21T06:32:58.056Z,1024.31
2018-10-21T06:33:58.037Z,1024.33
2018-10-21T06:35:51.495Z,1024.38
2018-10-21T06:36:51.637Z,1024.38
2018-10-21T06:38:44.453Z,1024.43
2018-10-21T06:39:44.482Z,1024.46
2018-10-21T06:41:37.943Z,1024.50
2018-10-21T06:42:37.966Z,1024.47
2018-10-21T06:44:30.915Z,1024.46
2018-10-21T06:45:31.014Z,1024.47
2018-10-21T06:47:23.898Z,1024.50
2018-10-21T06:48:23.933Z,1024.50
2018-10-21T06:50:17.360Z,1024.46
2018-10-21T06:51:17.469Z,1024.47
2018-10-21T06:53:10.848Z,1024.45
2018-10-21T06:54:10.862Z,1024.52
2018-10-21T06:56:04.301Z,1024.53
2018-10-21T06:57:04.445Z,1024.53
2018-10-21T06:58:57.281Z,1024.50
2018-10-21T06:59:57.303Z,1024.49
2018-10-21T07:01:50.759Z,1024.47
2018-10-21T07:02:50.783Z,1024.54
2018-10-21T07:04:43.809Z,1024.55
2018-10-21T07:05:43.757Z,1024.51
2018-10-21T07:07:36.714Z,1024.47
2018-10-21T07:08:36.745Z,1024.52
2018-10-21T07:10:30.181Z,1024.52
2018-10-21T07:11:30.204Z,1024.58
2018-10-21T07:13:23.669Z,1024.60
2018-10-21T07:14:23.691Z,1024.62
2018-10-21T07:16:16.861Z,1024.62
2018-10-21T07:17:16.675Z,1024.72
2018-10-21T07:19:09.619Z,1024.73
2018-10-21T07:20:09.644Z,1024.73
2018-10-21T07:22:02.617Z,1024.76
2018-10-21T07:23:02.624Z,1024.77
2018-10-21T07:24:55.571Z,1024.80
2018-10-21T07:25:55.601Z,1024.81
2018-10-21T07:27:48.559Z,1024.86
2018-10-21T07:28:48.575Z,1024.87
2018-10-21T07:30:41.522Z,1024.90
2018-10-21T07:31:41.554Z,1024.90
2018-10-21T07:33:34.508Z,1024.87
2018-10-21T07:34:34.526Z,1024.86
2018-10-21T07:36:27.564Z,1024.87
2018-10-21T07:37:27.529Z,1024.87
2018-10-21T07:39:20.456Z,1024.89
2018-10-21T07:40:20.485Z,1024.89
2018-10-21T07:42:13.443Z,1024.88
2018-10-21T07:43:13.461Z,1024.89
2018-10-21T07:45:07.409Z,1024.89
2018-10-21T07:46:07.511Z,1024.85
2018-10-21T07:48:00.394Z,1024.88
2018-10-21T07:49:00.420Z,1024.88
2018-10-21T07:50:53.397Z,1024.88
2018-10-21T07:51:53.463Z,1024.85
2018-10-21T07:53:46.384Z,1024.85
2018-10-21T07:54:46.403Z,1024.86
2018-10-21T07:56:39.346Z,1024.89
2018-10-21T07:57:39.377Z,1024.90
2018-10-21T07:59:32.333Z,1024.91
2018-10-21T08:00:32.353Z,1024.91
2018-10-21T08:02:25.802Z,1024.94
2018-10-21T08:03:25.820Z,1024.93
2018-10-21T08:05:19.272Z,1024.90
2018-10-21T08:06:19.304Z,1024.91
2018-10-21T08:08:12.766Z,1024.89
2018-10-21T08:09:12.783Z,1024.90
2018-10-21T08:11:06.228Z,1024.94
2018-10-21T08:12:06.256Z,1024.92
2018-10-21T08:13:59.719Z,1024.98
2018-10-21T08:14:59.765Z,1024.95
2018-10-21T08:16:53.182Z,1024.95
2018-10-21T08:17:53.208Z,1024.95
2018-10-21T08:19:46.656Z,1024.94
2018-10-21T08:20:46.683Z,1024.95
2018-10-21T08:22:40.133Z,1024.98
2018-10-21T08:23:40.159Z,1024.96
2018-10-21T08:25:33.613Z,1024.99
2018-10-21T08:26:33.636Z,1024.98
2018-10-21T08:28:26.598Z,1024.98
2018-10-21T08:29:26.617Z,1024.98
2018-10-21T08:31:20.072Z,1025.04
2018-10-21T08:32:20.096Z,1025.01
2018-10-21T08:34:13.727Z,1025.06
2018-10-21T08:35:13.588Z,1025.07
2018-10-21T08:37:07.028Z,1025.06
2018-10-21T08:38:07.060Z,1025.05
2018-10-21T08:40:00.287Z,1025.04
2018-10-21T08:41:00.077Z,1025.04
2018-10-21T08:42:54.893Z,1025.00
2018-10-21T08:43:54.844Z,1025.00
2018-10-21T08:45:48.242Z,1024.98
2018-10-21T08:46:48.205Z,1025.00
2018-10-21T08:48:41.291Z,1024.99
2018-10-21T08:49:41.304Z,1024.98
2018-10-21T08:51:34.833Z,1024.99
2018-10-21T08:52:34.719Z,1024.98
2018-10-21T08:54:28.422Z,1024.95
2018-10-21T08:55:28.458Z,1024.98
2018-10-21T08:57:21.343Z,1024.98
2018-10-21T08:58:21.375Z,1024.98
2018-10-21T09:00:14.330Z,1025.00
2018-10-21T09:01:14.395Z,1025.01
2018-10-21T09:03:07.304Z,1025.00
2018-10-21T09:04:07.353Z,1025.01
2018-10-21T09:06:00.286Z,1024.95
2018-10-21T09:07:00.309Z,1024.98
2018-10-21T09:08:53.250Z,1024.95
2018-10-21T09:09:53.340Z,1024.94
2018-10-21T09:11:46.236Z,1024.93
2018-10-21T09:12:46.259Z,1024.92
2018-10-21T09:14:39.212Z,1024.94
2018-10-21T09:15:39.246Z,1024.96
2018-10-21T09:17:32.187Z,1024.89
2018-10-21T09:18:32.222Z,1024.91
2018-10-21T09:20:25.172Z,1024.88
2018-10-21T09:21:25.197Z,1024.83
2018-10-21T09:23:18.645Z,1024.84
2018-10-21T09:24:18.674Z,1024.79
2018-10-21T09:26:12.124Z,1024.85
2018-10-21T09:27:12.144Z,1024.79
2018-10-21T09:29:05.091Z,1024.81
2018-10-21T09:30:05.119Z,1024.80
2018-10-21T09:31:58.567Z,1024.80
2018-10-21T09:32:58.587Z,1024.81
2018-10-21T09:34:52.037Z,1024.78
2018-10-21T09:35:52.058Z,1024.76
2018-10-21T09:37:45.511Z,1024.81
2018-10-21T09:38:45.540Z,1024.80
2018-10-21T09:40:38.991Z,1024.81
2018-10-21T09:41:39.010Z,1024.78
2018-10-21T09:43:32.466Z,1024.81
2018-10-21T09:44:32.489Z,1024.77
2018-10-21T09:46:25.937Z,1024.71
2018-10-21T09:47:25.959Z,1024.76
2018-10-21T09:49:19.484Z,1024.78
2018-10-21T09:50:19.446Z,1024.69
2018-10-21T09:52:14.999Z,1024.73
2018-10-21T09:53:14.925Z,1024.71
2018-10-21T09:55:08.407Z,1024.68
2018-10-21T09:56:08.411Z,1024.73
2018-10-21T09:58:01.871Z,1024.71
2018-10-21T09:59:01.908Z,1024.69
2018-10-21T10:00:56.391Z,1024.71
2018-10-21T10:01:56.391Z,1024.70
2018-10-21T10:03:49.849Z,1024.72
2018-10-21T10:04:49.837Z,1024.69
2018-10-21T10:06:43.362Z,1024.69
2018-10-21T10:07:43.326Z,1024.64
2018-10-21T10:09:36.752Z,1024.60
2018-10-21T10:10:36.786Z,1024.59
2018-10-21T10:12:30.242Z,1024.57
2018-10-21T10:13:30.259Z,1024.56
2018-10-21T10:15:23.715Z,1024.54
2018-10-21T10:16:23.730Z,1024.57
2018-10-21T10:18:17.172Z,1024.57
2018-10-21T10:19:17.330Z,1024.57
2018-10-21T10:21:10.650Z,1024.55
2018-10-21T10:22:10.775Z,1024.53
2018-10-21T10:24:04.109Z,1024.52
2018-10-21T10:25:04.169Z,1024.47
2018-10-21T10:26:57.595Z,1024.46
2018-10-21T10:27:57.660Z,1024.45
2018-10-21T10:29:51.074Z,1024.41
2018-10-21T10:30:51.085Z,1024.39
2018-10-21T10:32:44.537Z,1024.38
2018-10-21T10:33:44.555Z,1024.36
2018-10-21T10:35:37.999Z,1024.33
2018-10-21T10:36:38.024Z,1024.34
2018-10-21T10:38:31.485Z,1024.32
2018-10-21T10:39:31.507Z,1024.32
2018-10-21T10:41:24.975Z,1024.32
2018-10-21T10:42:24.995Z,1024.36
2018-10-21T10:44:18.451Z,1024.31
2018-10-21T10:45:18.480Z,1024.33
2018-10-21T10:47:12.952Z,1024.30
2018-10-21T10:48:12.968Z,1024.28
2018-10-21T10:50:06.422Z,1024.25
2018-10-21T10:51:06.449Z,1024.27
2018-10-21T10:53:00.958Z,1024.23
2018-10-21T10:54:00.920Z,1024.19
2018-10-21T10:55:54.371Z,1024.14
2018-10-21T10:56:54.398Z,1024.21
2018-10-21T10:58:48.860Z,1024.16
2018-10-21T10:59:48.955Z,1024.12
2018-10-21T11:01:42.344Z,1024.15
2018-10-21T11:02:42.360Z,1024.13
2018-10-21T11:04:35.802Z,1024.15
2018-10-21T11:05:35.826Z,1024.11
2018-10-21T11:07:29.272Z,1024.14
2018-10-21T11:08:29.293Z,1024.09
2018-10-21T11:10:22.734Z,1024.10
2018-10-21T11:11:22.760Z,1024.07
2018-10-21T11:13:16.245Z,1024.08
2018-10-21T11:14:16.244Z,1024.07
2018-10-21T11:16:09.783Z,1024.03
2018-10-21T11:17:09.733Z,1024.04
2018-10-21T11:19:03.209Z,1024.04
2018-10-21T11:20:03.218Z,1024.05
2018-10-21T11:21:59.239Z,1024.02
2018-10-21T11:22:59.203Z,1024.00
2018-10-21T11:24:52.642Z,1023.99
2018-10-21T11:25:52.673Z,1024.04
2018-10-21T11:27:45.627Z,1024.05
2018-10-21T11:28:45.644Z,1024.04
2018-10-21T11:30:39.088Z,1024.02
2018-10-21T11:31:39.115Z,1024.03
2018-10-21T11:33:32.067Z,1023.99
2018-10-21T11:34:32.092Z,1024.01
2018-10-21T11:36:25.528Z,1024.02
2018-10-21T11:37:25.743Z,1023.99
2018-10-21T11:39:19.000Z,1023.94
2018-10-21T11:40:19.113Z,1023.96
2018-10-21T11:42:11.976Z,1023.91
2018-10-21T11:43:12.044Z,1023.94
2018-10-21T11:45:04.951Z,1023.95
2018-10-21T11:46:05.026Z,1023.90
2018-10-21T11:47:58.431Z,1023.94
2018-10-21T11:48:58.485Z,1023.95
2018-10-21T11:50:51.892Z,1023.88
2018-10-21T11:51:51.927Z,1023.91
2018-10-21T11:53:45.382Z,1023.86
2018-10-21T11:54:45.406Z,1023.83
2018-10-21T11:56:38.844Z,1023.78
2018-10-21T11:57:38.873Z,1023.83
2018-10-21T11:59:31.835Z,1023.83
2018-10-21T12:00:31.855Z,1023.81
2018-10-21T12:02:25.303Z,1023.75
2018-10-21T12:03:25.331Z,1023.74
2018-10-21T12:05:18.786Z,1023.75
2018-10-21T12:06:18.809Z,1023.73
2018-10-21T12:08:12.268Z,1023.75
2018-10-21T12:09:12.290Z,1023.70
2018-10-21T12:11:05.730Z,1023.66
2018-10-21T12:12:05.765Z,1023.65
2018-10-21T12:13:59.218Z,1023.67
2018-10-21T12:14:59.241Z,1023.66
2018-10-21T12:16:52.681Z,1023.64
2018-10-21T12:17:52.707Z,1023.63
2018-10-21T12:19:45.686Z,1023.62
2018-10-21T12:20:45.682Z,1023.58
2018-10-21T12:22:39.154Z,1023.55
2018-10-21T12:23:39.161Z,1023.54
2018-10-21T12:25:32.673Z,1023.53
2018-10-21T12:26:32.642Z,1023.54
2018-10-21T12:28:25.585Z,1023.52
2018-10-21T12:29:25.616Z,1023.51
2018-10-21T12:31:19.166Z,1023.50
2018-10-21T12:32:19.093Z,1023.47
2018-10-21T12:34:12.616Z,1023.45
2018-10-21T12:35:12.732Z,1023.46
2018-10-21T12:37:05.527Z,1023.39
2018-10-21T12:38:05.538Z,1023.42
2018-10-21T12:39:59.004Z,1023.40
2018-10-21T12:40:59.046Z,1023.34
2018-10-21T12:42:52.456Z,1023.38
2018-10-21T12:43:52.489Z,1023.32
2018-10-21T12:45:45.937Z,1023.35
2018-10-21T12:46:45.959Z,1023.27
2018-10-21T12:48:38.905Z,1023.30
2018-10-21T12:49:38.935Z,1023.30
2018-10-21T12:51:32.382Z,1023.25
2018-10-21T12:52:32.408Z,1023.26
2018-10-21T12:54:25.379Z,1023.24
2018-10-21T12:55:25.382Z,1023.23
2018-10-21T12:57:18.835Z,1023.21
2018-10-21T12:58:19.041Z,1023.17
2018-10-21T13:00:12.302Z,1023.19
2018-10-21T13:01:12.400Z,1023.14
2018-10-21T13:03:05.776Z,1023.15
2018-10-21T13:04:05.897Z,1023.11
2018-10-21T13:05:58.757Z,1023.10
2018-10-21T13:06:58.809Z,1023.09
2018-10-21T13:08:51.724Z,1023.08
2018-10-21T13:09:51.755Z,1023.08
2018-10-21T13:11:45.203Z,1023.04
2018-10-21T13:12:45.276Z,1023.04
2018-10-21T13:14:38.181Z,1023.07
2018-10-21T13:15:38.207Z,1023.03
2018-10-21T13:17:31.160Z,1023.00
2018-10-21T13:18:31.184Z,1023.03
2018-10-21T13:20:24.639Z,1023.01
2018-10-21T13:21:24.666Z,1022.98
2018-10-21T13:23:17.608Z,1022.96
2018-10-21T13:24:17.637Z,1023.01
2018-10-21T13:26:11.095Z,1022.95
2018-10-21T13:27:11.116Z,1022.96
2018-10-21T13:29:04.060Z,1022.99
2018-10-21T13:30:04.091Z,1022.92
2018-10-21T13:31:57.550Z,1022.97
2018-10-21T13:32:57.576Z,1022.95
2018-10-21T13:34:50.519Z,1022.93
2018-10-21T13:35:50.548Z,1022.95
2018-10-21T13:37:43.503Z,1022.88
2018-10-21T13:38:43.519Z,1022.95
2018-10-21T13:40:37.040Z,1022.96
2018-10-21T13:41:36.993Z,1022.94
2018-10-21T13:43:30.434Z,1022.93
2018-10-21T13:44:30.460Z,1022.92
2018-10-21T13:46:23.491Z,1022.92
2018-10-21T13:47:23.445Z,1022.91
2018-10-21T13:49:16.990Z,1022.88
2018-10-21T13:50:16.913Z,1022.87
2018-10-21T13:52:10.632Z,1022.89
2018-10-21T13:53:10.554Z,1022.86
2018-10-21T13:55:03.407Z,1022.93
2018-10-21T13:56:03.357Z,1022.86
2018-10-21T13:57:56.364Z,1022.90
2018-10-21T13:58:56.347Z,1022.83
2018-10-21T14:00:49.786Z,1022.84
2018-10-21T14:01:49.804Z,1022.84
2018-10-21T14:03:43.244Z,1022.81
2018-10-21T14:04:43.271Z,1022.85
2018-10-21T14:06:36.745Z,1022.82
2018-10-21T14:07:36.742Z,1022.81
2018-10-21T14:09:29.685Z,1022.78
2018-10-21T14:10:29.756Z,1022.78
2018-10-21T14:12:23.165Z,1022.83
2018-10-21T14:13:23.183Z,1022.81
2018-10-21T14:15:16.686Z,1022.79
2018-10-21T14:16:16.716Z,1022.78
2018-10-21T14:18:09.601Z,1022.77
2018-10-21T14:19:09.630Z,1022.74
2018-10-21T14:21:02.585Z,1022.78
2018-10-21T14:22:02.677Z,1022.71
2018-10-21T14:23:56.041Z,1022.73
2018-10-21T14:24:55.640Z,1022.71
2018-10-21T14:26:49.027Z,1022.71
2018-10-21T14:27:49.050Z,1022.68
2018-10-21T14:29:42.497Z,1022.66
2018-10-21T14:30:42.562Z,1022.67
2018-10-21T14:32:35.477Z,1022.64
2018-10-21T14:33:35.499Z,1022.68
2018-10-21T14:35:29.944Z,1022.62
2018-10-21T14:36:29.969Z,1022.58
2018-10-21T14:38:22.969Z,1022.58
2018-10-21T14:39:22.943Z,1022.57
2018-10-21T14:41:15.893Z,1022.61
2018-10-21T14:42:15.984Z,1022.56
2018-10-21T14:44:08.872Z,1022.52
2018-10-21T14:45:08.942Z,1022.56
2018-10-21T14:47:01.849Z,1022.49
2018-10-21T14:48:01.940Z,1022.48
2018-10-21T14:49:54.811Z,1022.46
2018-10-21T14:50:54.870Z,1022.43
2018-10-21T14:52:48.297Z,1022.43
2018-10-21T14:53:48.316Z,1022.38
2018-10-21T14:55:41.761Z,1022.33
2018-10-21T14:56:41.791Z,1022.34
2018-10-21T14:58:35.242Z,1022.31
2018-10-21T14:59:35.266Z,1022.30
2018-10-21T15:01:28.710Z,1022.30
2018-10-21T15:02:28.741Z,1022.27
2018-10-21T15:04:22.191Z,1022.26
2018-10-21T15:05:22.212Z,1022.26
2018-10-21T15:07:15.657Z,1022.25
2018-10-21T15:08:15.728Z,1022.23
2018-10-21T15:10:09.162Z,1022.22
2018-10-21T15:11:09.160Z,1022.23
2018-10-21T15:13:02.112Z,1022.19
2018-10-21T15:14:02.146Z,1022.16
2018-10-21T15:15:55.121Z,1022.17
2018-10-21T15:16:55.114Z,1022.19
2018-10-21T15:18:48.569Z,1022.17
2018-10-21T15:19:48.590Z,1022.17
2018-10-21T15:21:41.554Z,1022.11
2018-10-21T15:22:41.582Z,1022.14
2018-10-21T15:24:34.536Z,1022.15
2018-10-21T15:25:34.558Z,1022.17
2018-10-21T15:27:27.525Z,1022.13
2018-10-21T15:28:27.534Z,1022.13
2018-10-21T15:30:20.481Z,1022.18
2018-10-21T15:31:20.514Z,1022.16
2018-10-21T15:33:13.466Z,1022.13
2018-10-21T15:34:13.569Z,1022.14
2018-10-21T15:36:06.458Z,1022.15
2018-10-21T15:37:06.488Z,1022.13
2018-10-21T15:38:59.442Z,1022.12
2018-10-21T15:39:59.480Z,1022.15
2018-10-21T15:41:52.407Z,1022.10
2018-10-21T15:42:52.439Z,1022.14
2018-10-21T15:44:45.393Z,1022.10
2018-10-21T15:45:45.463Z,1022.11
2018-10-21T15:47:38.870Z,1022.12
2018-10-21T15:48:38.887Z,1022.10
2018-10-21T15:50:32.372Z,1022.11
2018-10-21T15:51:32.357Z,1022.14
2018-10-21T15:53:25.808Z,1022.10
2018-10-21T15:54:25.833Z,1022.09
2018-10-21T15:56:19.272Z,1022.10
2018-10-21T15:57:19.296Z,1022.08
2018-10-21T15:59:12.252Z,1022.10
2018-10-21T16:00:12.273Z,1022.11
2018-10-21T16:02:05.768Z,1022.13
2018-10-21T16:03:05.742Z,1022.12
2018-10-21T16:04:59.187Z,1022.13
2018-10-21T16:05:59.208Z,1022.11
2018-10-21T16:07:52.651Z,1022.14
2018-10-21T16:08:52.680Z,1022.12
2018-10-21T16:10:46.135Z,1022.12
2018-10-21T16:11:46.188Z,1022.09
2018-10-21T16:13:39.107Z,1022.09
2018-10-21T16:14:39.134Z,1022.08
2018-10-21T16:16:32.574Z,1022.08
2018-10-21T16:17:32.600Z,1022.05
2018-10-21T16:19:26.047Z,1022.09
2018-10-21T16:20:26.068Z,1022.09
2018-10-21T16:22:19.606Z,1022.12
2018-10-21T16:23:19.554Z,1022.15
2018-10-21T16:25:12.515Z,1022.15
2018-10-21T16:26:12.578Z,1022.12
2018-10-21T16:28:05.974Z,1022.13
2018-10-21T16:29:05.999Z,1022.14
2018-10-21T16:30:59.443Z,1022.13
2018-10-21T16:31:59.701Z,1022.12
2018-10-21T16:33:52.935Z,1022.12
2018-10-21T16:34:52.935Z,1022.10
2018-10-21T16:36:46.402Z,1022.13
2018-10-21T16:37:46.424Z,1022.14
2018-10-21T16:39:39.876Z,1022.20
2018-10-21T16:40:39.901Z,1022.13
2018-10-21T16:42:34.388Z,1022.16
2018-10-21T16:43:34.409Z,1022.16
2018-10-21T16:45:27.884Z,1022.16
2018-10-21T16:46:27.912Z,1022.16
2018-10-21T16:48:21.364Z,1022.14
2018-10-21T16:49:21.406Z,1022.11
2018-10-21T16:51:14.907Z,1022.13
2018-10-21T16:52:14.859Z,1022.11
2018-10-21T16:54:08.331Z,1022.13
2018-10-21T16:55:08.323Z,1022.12
2018-10-21T16:57:01.296Z,1022.08
2018-10-21T16:58:01.297Z,1022.08
2018-10-21T16:59:54.343Z,1022.07
2018-10-21T17:00:54.465Z,1022.07
2018-10-21T17:02:47.227Z,1022.06
2018-10-21T17:03:47.267Z,1022.07
2018-10-21T17:05:40.214Z,1022.03
2018-10-21T17:06:40.230Z,1022.01
2018-10-21T17:08:33.179Z,1022.01
2018-10-21T17:09:33.412Z,1021.99
2018-10-21T17:11:26.663Z,1022.01
2018-10-21T17:12:26.686Z,1021.99
2018-10-21T17:14:19.631Z,1021.99
2018-10-21T17:15:19.661Z,1022.00
2018-10-21T17:17:12.784Z,1022.04
2018-10-21T17:18:12.649Z,1022.03
2018-10-21T17:20:05.597Z,1022.08
2018-10-21T17:21:05.626Z,1022.08
2018-10-21T17:22:58.587Z,1022.11
2018-10-21T17:23:58.592Z,1022.12
2018-10-21T17:25:52.045Z,1022.09
2018-10-21T17:26:52.105Z,1022.12
2018-10-21T17:28:45.506Z,1022.14